Time;durP1;ratioP1;P1;durP2;ratioP2;P2;SDS_P1;SDS_P2;PMS_P1;PMS_P2;Temp;Humidity;BMP_temperature;BMP_pressure;BME280_temperature;BME280_humidity;BME280_pressure;Samples;Min_cycle;Max_cycle;Signal;HPM_P1;HPM_P2
2024/02/28 00:00:05;;;;;;;29.00;18.53;;;6.00;99.90;;;;;;4957760;29;20197;-63
2024/02/28 00:02:31;;;;;;;29.43;17.80;;;6.00;99.90;;;;;;4940670;29;20454;-64
2024/02/28 00:05:00;;;;;;;26.60;17.63;;;6.00;99.90;;;;;;4938604;29;20808;-63
2024/02/28 00:07:25;;;;;;;35.97;18.20;;;6.00;99.90;;;;;;4938836;29;20175;-63
2024/02/28 00:09:51;;;;;;;26.70;18.33;;;5.80;99.90;;;;;;4939068;29;20417;-64
2024/02/28 00:12:17;;;;;;;25.63;17.40;;;5.90;99.90;;;;;;4938425;29;20183;-63
2024/02/28 00:14:44;;;;;;;29.30;16.77;;;5.90;99.90;;;;;;4938970;29;20168;-64
2024/02/28 00:17:11;;;;;;;32.80;18.10;;;6.40;99.90;;;;;;4937642;29;20966;-63
2024/02/28 00:19:37;;;;;;;31.13;18.47;;;6.10;99.90;;;;;;4955273;29;20408;-64
2024/02/28 00:22:03;;;;;;;36.10;19.77;;;6.10;99.90;;;;;;4940324;29;20810;-63
2024/02/28 00:24:29;;;;;;;27.07;16.73;;;;;;;;;;4958028;29;20187;-64
2024/02/28 00:26:55;;;;;;;27.23;18.20;;;6.10;99.90;;;;;;4957295;29;20174;-61
2024/02/28 00:29:21;;;;;;;30.83;18.90;;;6.50;99.90;;;;;;4957989;29;20405;-61
2024/02/28 00:31:47;;;;;;;33.23;19.07;;;6.40;99.90;;;;;;4957299;29;20217;-62
2024/02/28 00:34:12;;;;;;;38.80;18.87;;;6.30;99.90;;;;;;4937770;29;20184;-63
2024/02/28 00:36:39;;;;;;;32.37;19.50;;;;;;;;;;4938717;29;20746;-64
2024/02/28 00:39:04;;;;;;;38.40;20.63;;;6.30;99.90;;;;;;4952712;29;20248;-63
2024/02/28 00:41:30;;;;;;;34.50;19.03;;;;;;;;;;4952818;29;20454;-63
2024/02/28 00:43:56;;;;;;;34.43;19.47;;;7.10;99.90;;;;;;4950387;29;20184;-62
2024/02/28 00:46:22;;;;;;;32.67;20.57;;;;;;;;;;4947899;29;20784;-63
2024/02/28 00:48:48;;;;;;;38.50;21.13;;;6.60;99.90;;;;;;4938407;29;20181;-64
2024/02/28 00:51:13;;;;;;;39.53;19.83;;;6.60;99.90;;;;;;4917295;29;20451;-63
2024/02/28 00:53:39;;;;;;;33.73;20.30;;;6.60;99.90;;;;;;4951891;29;20262;-64
2024/02/28 00:56:06;;;;;;;39.87;20.30;;;6.70;99.90;;;;;;4937746;29;20613;-63
2024/02/28 00:58:32;;;;;;;43.57;20.37;;;6.70;99.90;;;;;;4937858;29;20178;-64
2024/02/28 01:00:58;;;;;;;38.47;20.17;;;6.70;99.90;;;;;;4937315;29;20413;-62
2024/02/28 01:03:23;;;;;;;39.47;22.90;;;6.70;99.90;;;;;;4936808;29;20817;-64
2024/02/28 01:05:50;;;;;;;41.47;20.00;;;6.70;99.90;;;;;;4937717;29;20228;-64
2024/02/28 01:08:19;;;;;;;33.87;19.87;;;6.70;99.90;;;;;;4937443;29;20409;-63
2024/02/28 01:10:46;;;;;;;36.33;19.07;;;6.70;99.90;;;;;;4937848;29;20404;-64
2024/02/28 01:13:11;;;;;;;74.67;20.23;;;6.70;99.90;;;;;;4936830;29;20431;-63
2024/02/28 01:15:41;;;;;;;58.80;18.90;;;6.60;99.90;;;;;;4949529;29;20505;-64
2024/02/28 01:18:06;;;;;;;38.53;19.87;;;6.40;99.90;;;;;;4937255;29;20419;-63
2024/02/28 01:20:32;;;;;;;63.40;21.07;;;6.40;99.90;;;;;;4952459;29;20411;-63
2024/02/28 01:22:59;;;;;;;57.37;19.10;;;;;;;;;;4937540;29;20208;-61
2024/02/28 01:25:24;;;;;;;36.47;20.47;;;6.30;99.90;;;;;;4937192;29;20187;-64
2024/02/28 01:27:50;;;;;;;57.57;20.50;;;6.20;99.90;;;;;;4937178;29;20475;-64
2024/02/28 01:30:16;;;;;;;35.73;19.73;;;;;;;;;;4936919;29;20182;-63
2024/02/28 01:32:42;;;;;;;45.43;18.63;;;6.20;99.90;;;;;;4937595;29;20188;-64
2024/02/28 01:35:09;;;;;;;33.53;18.53;;;6.30;99.90;;;;;;4937012;29;20404;-63
2024/02/28 01:37:34;;;;;;;34.90;18.97;;;6.20;99.90;;;;;;4936981;29;20518;-64
2024/02/28 01:40:00;;;;;;;35.07;20.07;;;;;;;;;;4937190;29;20403;-63
2024/02/28 01:42:26;;;;;;;32.13;19.00;;;6.20;99.90;;;;;;4962038;28;20715;-63
2024/02/28 01:44:52;;;;;;;30.40;18.47;;;6.20;99.90;;;;;;4955327;29;20513;-63
2024/02/28 01:47:18;;;;;;;31.83;18.33;;;6.30;99.90;;;;;;4938478;29;20226;-63
2024/02/28 01:49:46;;;;;;;30.57;17.97;;;6.30;99.90;;;;;;4956157;29;20412;-63
2024/02/28 01:52:13;;;;;;;33.37;18.70;;;6.40;99.90;;;;;;4947107;29;20468;-64
2024/02/28 01:54:39;;;;;;;47.57;19.70;;;6.40;99.90;;;;;;4936555;29;20511;-63
2024/02/28 01:57:07;;;;;;;37.53;19.57;;;6.40;99.90;;;;;;4936116;29;20415;-63
2024/02/28 01:59:34;;;;;;;35.60;19.00;;;6.50;99.90;;;;;;4936952;29;20416;-63
2024/02/28 02:02:01;;;;;;;27.83;18.40;;;6.50;99.90;;;;;;4919915;29;20442;-62
2024/02/28 02:04:26;;;;;;;29.40;18.37;;;6.50;99.90;;;;;;4936968;29;20408;-63
2024/02/28 02:06:57;;;;;;;33.47;18.80;;;6.50;99.90;;;;;;4936676;29;20970;-63
2024/02/28 02:09:25;;;;;;;34.27;19.57;;;6.50;99.90;;;;;;4936292;29;20186;-63
2024/02/28 02:11:51;;;;;;;39.77;18.13;;;6.50;99.90;;;;;;4957019;28;20427;-63
2024/02/28 02:14:16;;;;;;;40.57;18.53;;;6.40;99.90;;;;;;4950802;28;20493;-62
2024/02/28 02:16:42;;;;;;;32.50;18.10;;;;;;;;;;4945688;29;20191;-63
2024/02/28 02:19:09;;;;;;;45.63;18.43;;;6.50;99.90;;;;;;4952875;29;20288;-63
2024/02/28 02:21:41;;;;;;;32.67;17.70;;;6.50;99.90;;;;;;4955907;29;20434;-63
2024/02/28 02:24:07;;;;;;;34.27;18.27;;;6.40;99.90;;;;;;4952751;29;20412;-62
2024/02/28 02:26:33;;;;;;;32.00;18.77;;;;;;;;;;4936187;29;20970;-63
2024/02/28 02:28:58;;;;;;;35.67;18.97;;;6.40;99.90;;;;;;4936484;29;20476;-63
2024/02/28 02:31:24;;;;;;;30.30;17.67;;;6.40;99.90;;;;;;4935561;29;20525;-63
2024/02/28 02:33:50;;;;;;;28.70;17.10;;;6.20;99.90;;;;;;4919372;29;20192;-63
2024/02/28 02:36:15;;;;;;;32.97;17.20;;;6.20;99.90;;;;;;4935768;29;20177;-63
2024/02/28 02:38:41;;;;;;;29.67;17.03;;;6.30;99.90;;;;;;4936511;29;20175;-64
2024/02/28 02:41:07;;;;;;;28.20;17.23;;;;;;;;;;4935621;29;20239;-64
2024/02/28 02:43:33;;;;;;;26.07;16.17;;;6.30;99.90;;;;;;4936277;29;20175;-64
2024/02/28 02:45:59;;;;;;;25.23;16.50;;;;;;;;;;4944707;29;20847;-64
2024/02/28 02:48:25;;;;;;;26.67;17.07;;;6.30;99.90;;;;;;4954733;29;20206;-63
2024/02/28 02:50:51;;;;;;;24.73;16.80;;;;;;;;;;4955463;29;20394;-64
2024/02/28 02:53:17;;;;;;;24.47;15.60;;;6.60;99.90;;;;;;4944574;29;20190;-63
2024/02/28 02:55:43;;;;;;;28.80;16.73;;;;;;;;;;4936355;29;20403;-64
2024/02/28 02:58:09;;;;;;;27.20;16.23;;;6.40;99.90;;;;;;4934929;29;20292;-63
2024/02/28 03:00:35;;;;;;;37.93;17.20;;;;;;;;;;4935656;29;20489;-63
2024/02/28 03:03:01;;;;;;;28.50;16.20;;;6.20;99.90;;;;;;4950454;29;20207;-63
2024/02/28 03:05:27;;;;;;;25.40;16.97;;;;;;;;;;4935219;29;20421;-64
2024/02/28 03:07:53;;;;;;;28.23;17.50;;;6.30;99.90;;;;;;4935735;29;20626;-63
2024/02/28 03:10:19;;;;;;;28.20;17.93;;;;;;;;;;4935167;29;20411;-63
2024/02/28 03:12:45;;;;;;;31.03;18.53;;;6.30;99.90;;;;;;4935123;29;20691;-64
2024/02/28 03:15:10;;;;;;;28.20;17.73;;;5.00;99.90;;;;;;4937552;29;20434;-64
2024/02/28 03:17:36;;;;;;;25.90;16.13;;;6.10;99.90;;;;;;4953300;29;20194;-63
2024/02/28 03:20:03;;;;;;;25.90;15.97;;;6.20;99.90;;;;;;4953599;29;20230;-64
2024/02/28 03:22:29;;;;;;;24.53;16.03;;;6.40;99.90;;;;;;4953042;29;20207;-62
2024/02/28 03:24:54;;;;;;;27.90;16.83;;;6.20;99.90;;;;;;4935308;29;20435;-64
2024/02/28 03:27:20;;;;;;;28.00;17.23;;;6.20;99.90;;;;;;4933771;29;20474;-63
2024/02/28 03:29:46;;;;;;;26.87;16.27;;;6.20;99.90;;;;;;4935292;29;20214;-63
2024/02/28 03:32:11;;;;;;;27.57;16.90;;;6.10;99.90;;;;;;4934630;29;20240;-63
2024/02/28 03:34:37;;;;;;;29.40;17.57;;;6.10;99.90;;;;;;4935480;29;20265;-63
2024/02/28 03:37:03;;;;;;;28.83;18.40;;;6.20;99.90;;;;;;4935511;29;20547;-63
2024/02/28 03:39:29;;;;;;;32.13;18.00;;;;;;;;;;4934830;29;20184;-63
2024/02/28 03:41:55;;;;;;;30.90;17.77;;;5.60;99.90;;;;;;4935340;29;20207;-64
2024/02/28 03:44:21;;;;;;;33.47;19.20;;;;;;;;;;4934369;29;20436;-63
2024/02/28 03:46:47;;;;;;;30.40;18.07;;;6.20;99.90;;;;;;4949665;29;20182;-63
2024/02/28 03:49:12;;;;;;;28.00;17.97;;;6.20;99.90;;;;;;4935433;29;20996;-63
2024/02/28 03:51:41;;;;;;;28.33;18.00;;;6.20;99.90;;;;;;4954417;29;20237;-63
2024/02/28 03:54:08;;;;;;;32.93;19.30;;;7.50;99.90;;;;;;4940775;29;20206;-61
2024/02/28 03:56:35;;;;;;;29.87;18.80;;;6.10;99.90;;;;;;4935666;29;20414;-63
2024/02/28 03:59:01;;;;;;;30.17;17.23;;;6.30;99.90;;;;;;4935466;29;20462;-63
2024/02/28 04:01:26;;;;;;;30.90;19.03;;;6.20;99.90;;;;;;4934587;29;20485;-63
2024/02/28 04:03:53;;;;;;;34.43;19.13;;;;;;;;;;4935209;29;20958;-64
2024/02/28 04:06:19;;;;;;;29.93;17.17;;;;;;;;;;4934315;29;20221;-63
2024/02/28 04:08:44;;;;;;;32.93;18.23;;;6.20;99.90;;;;;;4935209;29;20759;-63
2024/02/28 04:11:10;;;;;;;36.47;18.30;;;;;;;;;;4934566;29;20424;-63
2024/02/28 04:13:36;;;;;;;33.93;19.77;;;6.20;99.90;;;;;;4934901;29;20180;-63
2024/02/28 04:16:03;;;;;;;32.10;17.77;;;6.30;99.90;;;;;;4943786;29;20991;-63
2024/02/28 04:18:30;;;;;;;32.73;16.97;;;6.30;99.90;;;;;;4948242;29;20722;-63
2024/02/28 04:20:55;;;;;;;34.80;19.10;;;6.20;99.90;;;;;;4918188;29;20431;-63
2024/02/28 04:23:21;;;;;;;33.60;19.20;;;6.30;99.90;;;;;;4949221;29;20505;-63
2024/02/28 04:25:47;;;;;;;30.97;18.20;;;6.20;99.90;;;;;;4935132;29;20180;-64
2024/02/28 04:28:12;;;;;;;32.73;18.67;;;6.30;99.90;;;;;;4934245;29;20239;-63
2024/02/28 04:30:39;;;;;;;35.30;18.50;;;6.30;99.90;;;;;;4934822;29;20176;-63
2024/02/28 04:33:05;;;;;;;32.43;17.87;;;6.30;99.90;;;;;;4917893;29;20505;-64
2024/02/28 04:35:30;;;;;;;32.20;17.80;;;6.40;99.90;;;;;;4934121;29;20205;-63
2024/02/28 04:37:56;;;;;;;34.73;18.37;;;6.40;99.90;;;;;;4936487;29;20644;-63
2024/02/28 04:40:22;;;;;;;33.30;20.50;;;6.50;99.90;;;;;;4938054;29;20184;-63
2024/02/28 04:42:48;;;;;;;37.43;19.90;;;6.40;99.90;;;;;;4938174;29;20206;-63
2024/02/28 04:45:13;;;;;;;38.27;19.30;;;6.60;99.90;;;;;;4941596;29;20466;-63
2024/02/28 04:47:39;;;;;;;33.20;17.57;;;6.40;99.90;;;;;;4956215;29;20183;-64
2024/02/28 04:50:05;;;;;;;27.93;17.53;;;6.50;99.90;;;;;;4938615;29;20184;-64
2024/02/28 04:52:32;;;;;;;31.83;17.73;;;6.40;99.90;;;;;;4937384;29;20230;-63
2024/02/28 04:54:58;;;;;;;27.80;17.00;;;6.50;99.90;;;;;;4938221;29;20916;-63
2024/02/28 04:57:23;;;;;;;29.47;18.30;;;6.40;99.90;;;;;;4937334;29;20431;-63
2024/02/28 04:59:50;;;;;;;30.60;17.53;;;;;;;;;;4937799;29;20187;-63
2024/02/28 05:02:16;;;;;;;28.20;16.33;;;;;;;;;;4937070;29;20797;-61
2024/02/28 05:04:42;;;;;;;29.20;15.83;;;6.40;99.90;;;;;;4937846;29;20410;-61
2024/02/28 05:07:08;;;;;;;30.33;15.80;;;6.40;99.90;;;;;;4937454;29;20806;-61
2024/02/28 05:09:35;;;;;;;31.37;18.00;;;6.10;99.90;;;;;;4936716;29;20942;-61
2024/02/28 05:12:01;;;;;;;29.63;18.13;;;6.10;99.90;;;;;;4952533;29;20455;-61
2024/02/28 05:14:27;;;;;;;33.63;19.13;;;6.30;99.90;;;;;;4937266;29;20458;-62
2024/02/28 05:16:52;;;;;;;26.60;16.13;;;6.20;99.90;;;;;;4937568;29;20432;-61
2024/02/28 05:19:18;;;;;;;30.37;15.90;;;6.00;99.90;;;;;;4971196;28;20193;-61
2024/02/28 05:21:45;;;;;;;32.67;18.13;;;6.00;99.90;;;;;;4956812;29;20253;-61
2024/02/28 05:24:11;;;;;;;29.53;17.10;;;6.20;99.90;;;;;;4956765;29;20412;-61
2024/02/28 05:26:37;;;;;;;26.38;16.73;;;6.20;99.90;;;;;;4941294;29;20422;-61
2024/02/28 05:29:04;;;;;;;31.07;17.90;;;6.20;99.90;;;;;;4937285;29;20285;-61
2024/02/28 05:31:33;;;;;;;32.40;19.13;;;6.30;99.90;;;;;;4936924;29;20451;-62
2024/02/28 05:34:00;;;;;;;32.27;18.70;;;6.20;99.90;;;;;;4937355;29;20403;-62
2024/02/28 05:36:28;;;;;;;31.20;18.60;;;6.20;99.90;;;;;;4935895;29;20879;-61
2024/02/28 05:38:56;;;;;;;31.37;16.23;;;6.30;99.90;;;;;;4931609;29;20210;-63
2024/02/28 05:41:22;;;;;;;35.03;18.10;;;6.20;99.90;;;;;;4944081;29;20473;-63
2024/02/28 05:43:48;;;;;;;30.57;17.80;;;6.20;99.90;;;;;;4951662;29;20441;-63
2024/02/28 05:46:15;;;;;;;36.43;18.70;;;6.40;99.90;;;;;;4938435;29;20416;-62
2024/02/28 05:48:41;;;;;;;31.13;17.40;;;6.30;99.90;;;;;;4935816;29;20395;-64
2024/02/28 05:51:07;;;;;;;38.30;23.13;;;;;;;;;;4929509;29;20423;-63
2024/02/28 05:53:38;;;;;;;33.17;20.93;;;6.30;99.90;;;;;;4930965;29;20986;-63
2024/02/28 05:56:04;;;;;;;38.67;20.30;;;6.20;99.90;;;;;;4936866;29;20746;-63
2024/02/28 05:58:30;;;;;;;36.67;18.93;;;5.70;99.90;;;;;;4936247;29;20779;-63
2024/02/28 06:00:57;;;;;;;29.93;18.33;;;6.00;99.90;;;;;;4936327;29;20502;-63
2024/02/28 06:03:22;;;;;;;32.63;20.73;;;5.60;99.90;;;;;;4936118;29;20448;-63
2024/02/28 06:05:48;;;;;;;40.63;19.40;;;5.50;99.90;;;;;;4949212;29;20190;-63
2024/02/28 06:08:15;;;;;;;38.30;20.03;;;;;;;;;;4935467;29;20192;-63
2024/02/28 06:10:42;;;;;;;36.30;19.60;;;5.00;99.90;;;;;;4943143;29;20185;-63
2024/02/28 06:13:08;;;;;;;41.25;20.33;;;5.20;99.90;;;;;;4936810;29;20388;-64
2024/02/28 06:15:34;;;;;;;36.60;19.50;;;5.40;99.90;;;;;;4935829;29;20579;-61
2024/02/28 06:18:00;;;;;;;34.43;19.07;;;5.50;99.90;;;;;;4937121;29;20422;-61
2024/02/28 06:20:26;;;;;;;36.23;19.10;;;5.70;99.90;;;;;;4948739;29;20393;-61
2024/02/28 06:22:52;;;;;;;32.43;17.10;;;5.70;99.90;;;;;;4938448;29;20936;-62
2024/02/28 06:25:22;;;;;;;35.07;19.03;;;;;;;;;;4946070;29;20508;-61
2024/02/28 06:27:48;;;;;;;34.60;19.87;;;5.90;99.90;;;;;;4955347;29;20591;-62
2024/02/28 06:30:14;;;;;;;30.33;17.53;;;6.00;99.90;;;;;;4955588;29;20376;-62
2024/02/28 06:32:40;;;;;;;29.73;15.87;;;6.10;99.90;;;;;;4954738;29;20883;-62
2024/02/28 06:35:07;;;;;;;31.20;20.17;;;6.10;99.90;;;;;;4955519;29;20489;-62
2024/02/28 06:37:33;;;;;;;33.60;17.80;;;6.10;99.90;;;;;;4936167;29;20567;-62
2024/02/28 06:39:59;;;;;;;37.93;18.20;;;6.40;99.90;;;;;;4936109;29;20411;-62
2024/02/28 06:42:25;;;;;;;30.93;16.43;;;;;;;;;;4934187;29;20475;-62
2024/02/28 06:44:50;;;;;;;33.50;17.27;;;6.10;99.90;;;;;;4936127;29;20187;-62
2024/02/28 06:47:18;;;;;;;33.13;16.80;;;6.20;99.90;;;;;;4935471;29;20427;-66
2024/02/28 06:49:44;;;;;;;36.10;20.07;;;6.20;99.90;;;;;;4935393;29;20234;-62
2024/02/28 06:52:09;;;;;;;34.40;17.70;;;6.00;99.90;;;;;;4935095;29;21002;-62
2024/02/28 06:54:35;;;;;;;32.13;18.50;;;6.40;99.90;;;;;;4934779;29;20513;-63
2024/02/28 06:57:02;;;;;;;30.83;19.13;;;6.50;99.90;;;;;;4935965;29;20211;-62
2024/02/28 06:59:28;;;;;;;33.40;19.33;;;6.50;99.90;;;;;;4935321;29;20182;-63
2024/02/28 07:01:54;;;;;;;34.93;18.70;;;6.50;99.90;;;;;;4935288;29;20468;-62
2024/02/28 07:04:19;;;;;;;34.83;18.50;;;6.50;99.90;;;;;;4934782;29;20432;-61
2024/02/28 07:06:45;;;;;;;32.27;17.47;;;6.60;99.90;;;;;;4935980;29;20479;-64
2024/02/28 07:09:12;;;;;;;32.30;17.73;;;6.50;99.90;;;;;;4935521;29;20252;-62
2024/02/28 07:11:38;;;;;;;33.80;19.87;;;6.70;99.90;;;;;;4935483;29;20222;-62
2024/02/28 07:14:04;;;;;;;36.20;19.10;;;6.60;99.90;;;;;;4934186;29;20478;-61
2024/02/28 07:16:33;;;;;;;38.13;20.57;;;6.80;99.90;;;;;;4934643;29;20777;-61
2024/02/28 07:19:00;;;;;;;34.93;18.60;;;6.80;99.90;;;;;;4934893;29;20427;-62
2024/02/28 07:21:26;;;;;;;31.57;18.30;;;6.70;99.90;;;;;;4934638;29;20483;-61
2024/02/28 07:23:52;;;;;;;34.20;18.27;;;;;;;;;;4945570;29;20437;-62
2024/02/28 07:26:18;;;;;;;36.83;19.87;;;6.90;99.90;;;;;;4940944;29;20644;-61
2024/02/28 07:28:49;;;;;;;36.83;19.90;;;6.80;99.90;;;;;;4952914;29;20472;-62
2024/02/28 07:31:19;;;;;;;37.57;20.20;;;6.90;99.90;;;;;;4954715;29;20214;-62
2024/02/28 07:33:45;;;;;;;37.90;19.27;;;6.90;99.90;;;;;;4954304;29;20506;-62
2024/02/28 07:36:11;;;;;;;31.20;17.73;;;7.00;99.90;;;;;;4954869;29;20420;-62
2024/02/28 07:38:37;;;;;;;40.37;23.67;;;7.10;99.90;;;;;;4946583;29;20495;-61
2024/02/28 07:41:04;;;;;;;39.83;17.60;;;7.10;99.90;;;;;;4934732;29;20452;-62
2024/02/28 07:43:32;;;;;;;35.33;21.27;;;6.90;99.90;;;;;;4934712;29;20432;-61
2024/02/28 07:46:01;;;;;;;35.80;18.50;;;6.80;99.90;;;;;;4934685;29;20810;-61
2024/02/28 07:48:26;;;;;;;36.90;19.57;;;7.00;99.90;;;;;;4933455;29;20417;-61
2024/02/28 07:50:52;;;;;;;42.23;23.80;;;7.30;99.90;;;;;;4935184;29;20468;-61
2024/02/28 07:53:18;;;;;;;37.73;20.47;;;7.60;99.90;;;;;;4935379;29;20625;-62
2024/02/28 07:55:43;;;;;;;45.67;21.90;;;8.00;99.90;;;;;;4941038;29;20177;-61
2024/02/28 07:58:09;;;;;;;37.70;20.13;;;7.80;99.90;;;;;;4954585;29;20285;-61
2024/02/28 08:00:35;;;;;;;45.17;24.20;;;8.00;99.90;;;;;;4954136;29;20974;-61
2024/02/28 08:03:01;;;;;;;45.07;23.53;;;8.20;99.90;;;;;;4954633;29;20207;-61
2024/02/28 08:05:27;;;;;;;46.23;23.30;;;8.40;99.90;;;;;;4953779;29;20507;-61
2024/02/28 08:07:53;;;;;;;49.00;25.30;;;8.30;99.90;;;;;;4938030;29;20493;-61
2024/02/28 08:10:19;;;;;;;45.50;25.17;;;8.20;99.90;;;;;;4936340;29;20444;-61
2024/02/28 08:12:45;;;;;;;46.10;22.40;;;8.30;99.90;;;;;;4936229;29;20512;-61
2024/02/28 08:15:11;;;;;;;46.83;22.77;;;8.40;99.90;;;;;;4938911;29;20413;-64
2024/02/28 08:17:37;;;;;;;47.40;25.23;;;8.50;99.90;;;;;;4938233;29;20174;-61
2024/02/28 08:20:08;;;;;;;54.87;25.83;;;8.50;99.90;;;;;;4944843;29;20432;-62
2024/02/28 08:22:34;;;;;;;52.00;24.70;;;8.60;99.90;;;;;;4943680;29;20288;-61
2024/02/28 08:24:59;;;;;;;49.20;25.23;;;8.90;99.90;;;;;;4938437;29;20461;-61
2024/02/28 08:27:26;;;;;;;46.93;23.50;;;;;;;;;;4918464;29;20469;-60
2024/02/28 08:29:51;;;;;;;45.80;24.30;;;8.70;99.90;;;;;;4938940;29;20185;-60
2024/02/28 08:32:18;;;;;;;43.80;24.53;;;8.80;99.90;;;;;;4938204;29;20902;-61
2024/02/28 08:34:47;;;;;;;48.60;24.90;;;8.80;99.90;;;;;;4937865;29;20195;-60
2024/02/28 08:37:13;;;;;;;42.33;24.27;;;8.80;99.90;;;;;;4938384;29;20806;-60
2024/02/28 08:39:39;;;;;;;43.00;24.67;;;8.80;99.90;;;;;;4937797;29;20417;-61
2024/02/28 08:42:05;;;;;;;41.70;24.00;;;8.70;99.90;;;;;;4938120;29;20452;-60
2024/02/28 08:44:31;;;;;;;49.00;25.37;;;8.70;99.90;;;;;;4938079;29;20422;-61
2024/02/28 08:46:57;;;;;;;41.80;23.20;;;8.80;99.90;;;;;;4938577;29;20418;-60
2024/02/28 08:49:23;;;;;;;43.70;24.17;;;;;;;;;;4938446;29;20606;-60
2024/02/28 08:51:49;;;;;;;41.33;23.17;;;8.60;99.90;;;;;;4956869;29;20205;-61
2024/02/28 08:54:14;;;;;;;51.30;24.90;;;8.70;99.90;;;;;;4957501;29;20414;-60
2024/02/28 08:56:41;;;;;;;41.07;22.07;;;;;;;;;;4956637;29;20205;-60
2024/02/28 08:59:07;;;;;;;41.70;23.30;;;9.00;99.90;;;;;;4957724;29;20231;-60
2024/02/28 09:01:34;;;;;;;40.60;25.00;;;;;;;;;;4956628;29;20456;-61
2024/02/28 09:04:00;;;;;;;39.60;20.67;;;9.10;99.90;;;;;;4957268;29;20227;-60
2024/02/28 09:06:27;;;;;;;49.23;25.20;;;;;;;;;;4953297;29;20427;-61
2024/02/28 09:08:52;;;;;;;40.70;25.30;;;9.30;99.90;;;;;;4956090;29;20508;-61
2024/02/28 09:11:19;;;;;;;43.70;22.67;;;9.20;99.90;;;;;;4957376;29;20749;-60
2024/02/28 09:13:44;;;;;;;38.60;23.43;;;9.20;99.90;;;;;;4956439;29;20405;-61
2024/02/28 09:16:10;;;;;;;44.43;24.37;;;9.20;99.90;;;;;;4957068;29;20822;-60
2024/02/28 09:18:36;;;;;;;43.13;24.63;;;9.20;99.90;;;;;;4956446;29;20693;-58
2024/02/28 09:21:02;;;;;;;42.43;22.60;;;9.30;99.90;;;;;;4939628;29;20660;-60
2024/02/28 09:23:27;;;;;;;46.27;24.23;;;9.30;99.90;;;;;;4955449;28;20227;-61
2024/02/28 09:25:53;;;;;;;37.27;24.10;;;9.30;99.90;;;;;;4956789;29;20652;-60
2024/02/28 09:28:19;;;;;;;44.60;23.70;;;;;;;;;;4956504;29;20314;-60
2024/02/28 09:30:47;;;;;;;39.73;23.60;;;9.30;99.90;;;;;;4956175;29;20177;-60
2024/02/28 09:33:13;;;;;;;41.83;25.03;;;9.40;99.90;;;;;;4951256;29;20434;-61
2024/02/28 09:35:39;;;;;;;46.00;25.93;;;;;;;;;;4956062;29;20421;-60
2024/02/28 09:38:05;;;;;;;40.23;23.10;;;9.50;99.90;;;;;;4956431;29;20184;-61
2024/02/28 09:40:31;;;;;;;38.37;21.77;;;9.60;99.90;;;;;;4956044;29;20905;-61
2024/02/28 09:43:03;;;;;;;45.33;24.63;;;9.70;99.90;;;;;;4956476;29;20594;-60
2024/02/28 09:45:33;;;;;;;44.70;25.50;;;9.70;99.90;;;;;;4951686;29;20427;-61
2024/02/28 09:48:03;;;;;;;41.30;22.53;;;9.70;99.90;;;;;;4956543;29;20410;-61
2024/02/28 09:50:29;;;;;;;43.13;24.00;;;9.80;99.90;;;;;;4955865;29;20406;-61
2024/02/28 09:52:56;;;;;;;42.23;23.60;;;9.80;99.90;;;;;;4956377;29;20433;-61
2024/02/28 09:55:21;;;;;;;37.47;22.77;;;9.80;99.90;;;;;;4956632;29;20972;-60
2024/02/28 09:57:52;;;;;;;44.70;23.27;;;9.80;99.90;;;;;;4954861;29;20433;-60
2024/02/28 10:00:20;;;;;;;44.07;26.10;;;9.70;99.90;;;;;;4955904;29;20680;-60
2024/02/28 10:02:50;;;;;;;40.90;22.30;;;9.70;99.90;;;;;;4970250;28;20464;-61
2024/02/28 10:05:18;;;;;;;40.53;24.50;;;9.90;99.90;;;;;;4956035;29;20426;-60
2024/02/28 10:07:47;;;;;;;41.80;24.73;;;9.70;99.90;;;;;;4955457;29;20426;-61
2024/02/28 10:10:13;;;;;;;37.97;22.53;;;9.80;99.90;;;;;;4956153;29;20408;-60
2024/02/28 10:12:42;;;;;;;40.80;21.50;;;9.90;99.90;;;;;;4955391;29;20412;-61
2024/02/28 10:15:09;;;;;;;32.93;22.20;;;10.00;99.90;;;;;;4952233;29;20435;-60
2024/02/28 10:17:35;;;;;;;37.23;24.23;;;9.80;99.90;;;;;;4955109;29;20977;-61
2024/02/28 10:20:01;;;;;;;42.10;23.83;;;9.80;99.90;;;;;;4956157;29;20419;-60
2024/02/28 10:22:27;;;;;;;38.57;23.30;;;9.90;99.90;;;;;;4955748;29;20661;-61
2024/02/28 10:25:03;;;;;;;42.60;22.33;;;10.40;99.90;;;;;;4954489;29;20419;-60
2024/02/28 10:27:32;;;;;;;35.63;23.17;;;10.30;99.90;;;;;;4969650;28;20575;-60
2024/02/28 10:29:58;;;;;;;33.67;21.67;;;11.20;99.90;;;;;;4955434;29;20419;-60
2024/02/28 10:32:23;;;;;;;36.50;22.10;;;11.10;99.90;;;;;;4955696;29;20778;-60
2024/02/28 10:34:49;;;;;;;36.17;20.50;;;11.10;99.90;;;;;;4954440;28;20185;-60
2024/02/28 10:37:17;;;;;;;40.47;22.07;;;11.20;99.90;;;;;;4955535;29;20181;-60
2024/02/28 10:39:44;;;;;;;40.30;23.87;;;11.50;99.90;;;;;;4954602;29;20911;-61
2024/02/28 10:42:12;;;;;;;35.17;21.33;;;11.90;99.90;;;;;;4955420;29;20449;-60
2024/02/28 10:44:40;;;;;;;31.20;19.40;;;12.20;98.50;;;;;;4951660;29;20432;-60
2024/02/28 10:47:08;;;;;;;30.80;18.73;;;12.40;96.90;;;;;;4947722;29;20406;-60
2024/02/28 10:49:34;;;;;;;36.10;24.13;;;12.70;97.10;;;;;;4954823;29;20527;-61
2024/02/28 10:52:03;;;;;;;36.60;23.03;;;13.00;95.80;;;;;;4955060;29;20937;-60
2024/02/28 10:54:31;;;;;;;33.67;19.97;;;13.10;96.20;;;;;;4955381;29;20189;-60
2024/02/28 10:56:58;;;;;;;33.70;20.67;;;13.30;94.90;;;;;;4954437;29;20405;-60
2024/02/28 10:59:25;;;;;;;32.17;20.10;;;13.40;95.10;;;;;;4954843;29;20412;-60
2024/02/28 11:01:51;;;;;;;33.27;21.70;;;13.60;94.50;;;;;;4954371;29;20472;-60
2024/02/28 11:04:17;;;;;;;29.33;20.70;;;13.70;92.00;;;;;;4955092;29;20413;-60
2024/02/28 11:06:51;;;;;;;31.50;20.27;;;13.70;93.10;;;;;;4954457;29;20825;-60
2024/02/28 11:09:25;;;;;;;27.87;19.23;;;13.90;92.70;;;;;;4955015;29;20405;-60
2024/02/28 11:11:51;;;;;;;32.07;18.20;;;;;;;;;;4954433;29;20410;-58
2024/02/28 11:14:21;;;;;;;32.60;19.17;;;14.30;91.60;;;;;;4952653;29;20530;-60
2024/02/28 11:16:47;;;;;;;31.97;21.80;;;14.40;90.60;;;;;;4954278;29;20956;-61
2024/02/28 11:19:22;;;;;;;28.50;18.73;;;14.50;98.70;;;;;;4954850;29;20411;-60
2024/02/28 11:21:54;;;;;;;30.60;19.70;;;14.60;88.20;;;;;;4954062;29;20508;-59
2024/02/28 11:24:27;;;;;;;27.63;19.33;;;14.60;88.50;;;;;;4954805;29;20429;-59
2024/02/28 11:26:53;;;;;;;31.13;19.77;;;14.70;86.50;;;;;;4953881;29;20416;-64
2024/02/28 11:29:27;;;;;;;32.80;20.63;;;14.10;86.90;;;;;;4954676;29;20548;-64
2024/02/28 11:31:53;;;;;;;30.37;20.43;;;13.60;89.50;;;;;;4953989;29;20248;-63
2024/02/28 11:34:20;;;;;;;31.67;19.20;;;13.00;99.60;;;;;;4953124;29;20861;-64
2024/02/28 11:36:49;;;;;;;33.00;20.13;;;13.10;90.80;;;;;;4936931;29;20515;-63
2024/02/28 11:39:16;;;;;;;32.23;17.87;;;13.00;91.10;;;;;;4935010;29;20449;-63
2024/02/28 11:41:46;;;;;;;34.03;21.10;;;13.10;91.60;;;;;;4933474;29;20465;-63
2024/02/28 11:44:16;;;;;;;37.30;21.10;;;13.20;91.40;;;;;;4935375;29;20445;-62
2024/02/28 11:46:46;;;;;;;32.63;18.90;;;13.30;90.60;;;;;;4934074;29;20411;-62
2024/02/28 11:49:15;;;;;;;29.50;19.63;;;13.10;91.00;;;;;;4935381;29;20421;-62
2024/02/28 11:51:42;;;;;;;30.40;19.57;;;13.40;97.00;;;;;;4934669;29;20448;-62
2024/02/28 11:54:12;;;;;;;32.97;20.20;;;13.20;90.80;;;;;;4947411;29;20939;-62
2024/02/28 11:56:38;;;;;;;28.50;17.93;;;13.30;91.10;;;;;;4953840;29;20408;-62
2024/02/28 11:59:05;;;;;;;31.47;17.70;;;13.20;89.90;;;;;;4953676;29;20412;-62
2024/02/28 12:01:38;;;;;;;26.83;17.77;;;13.30;92.50;;;;;;4920906;29;20567;-63
2024/02/28 12:04:05;;;;;;;29.43;18.20;;;13.70;93.10;;;;;;4953924;29;20393;-63
2024/02/28 12:06:34;;;;;;;27.80;17.03;;;14.10;89.90;;;;;;4952002;29;20512;-64
2024/02/28 12:09:00;;;;;;;29.50;17.60;;;13.90;88.00;;;;;;4950966;29;20430;-64
2024/02/28 12:11:28;;;;;;;29.40;18.47;;;14.00;87.60;;;;;;4948561;29;20435;-64
2024/02/28 12:13:55;;;;;;;28.07;18.07;;;13.60;85.80;;;;;;4950254;29;20193;-64
2024/02/28 12:16:27;;;;;;;37.80;25.57;;;13.40;86.70;;;;;;4951440;29;20539;-64
2024/02/28 12:18:53;;;;;;;30.90;19.17;;;12.80;89.20;;;;;;4950886;29;20440;-64
2024/02/28 12:21:20;;;;;;;29.33;18.73;;;12.60;90.00;;;;;;4948982;29;20444;-65
2024/02/28 12:23:48;;;;;;;27.77;18.30;;;12.80;90.20;;;;;;4962893;28;20440;-64
2024/02/28 12:26:16;;;;;;;30.00;17.80;;;12.90;89.40;;;;;;4953881;29;20413;-65
2024/02/28 12:28:42;;;;;;;26.83;18.07;;;12.80;89.50;;;;;;4953439;29;20982;-64
2024/02/28 12:31:11;;;;;;;25.40;17.90;;;;;;;;;;4950361;29;20440;-64
2024/02/28 12:33:37;;;;;;;28.37;18.30;;;12.80;92.60;;;;;;4952896;29;20266;-64
2024/02/28 12:36:04;;;;;;;29.03;17.70;;;13.30;91.50;;;;;;4949626;29;21039;-65
2024/02/28 12:38:30;;;;;;;53.07;32.30;;;13.40;89.00;;;;;;4953699;29;20988;-65
2024/02/28 12:40:57;;;;;;;199.13;128.60;;;13.30;87.90;;;;;;4953330;29;20448;-64